Neki — WDF5694 — position and weather

sailwx.info

Track history (hours):
 
Tides and Currents Weather Stations Pressure Air Temp Water Temp Dewpoint Dewpoint Depression Visibility Wind Speed Wind Dir Waves Ship Positions

Neki

Owner: Noble Marine, LLC, Lighthouse Point, FL. More information available from US FCC via Universal Licensing System and Coast Guard Vessel Documentation Center.

Last reported at 2015-Aug-26 20:21 UTC. Time now 2015-Aug-31 19:54 UTC.
Position N 41°31' W 070°42'.

Length 20 m.

Type: Sailing vessel. MMSI: 367466230.

Date/timePositionNaut miles runAvg speedWind from/ knotsBaromVisibWave heightAir tempDewpointWater temp
2015-Aug-26 20:21N 41°31' W 070°42'3 3.5
2015-Aug-26 19:33N 41°30' W 070°38'4 4.1
2015-Aug-26 18:34N 41°30' W 070°33'7 6.8
2015-Aug-26 17:33N 41°23' W 070°30'0 0.0
2015-Aug-26 16:33N 41°23' W 070°30'0 0.0
2015-Aug-25 18:32N 41°23' W 070°30'0 0.0
2015-Aug-25 17:29N 41°23' W 070°30'0 0.0
2015-Aug-25 16:20N 41°23' W 070°30'0 0.0
2015-Aug-25 15:17N 41°23' W 070°30'0 0.0
2015-Aug-25 12:32N 41°23' W 070°30'0 0.0
2015-Aug-25 11:29N 41°23' W 070°30'0 0.0
2015-Aug-25 10:20N 41°23' W 070°30'23 0.6
2015-Aug-23 18:17N 41°23' W 071°01'5 7.5
2015-Aug-23 17:33N 41°24' W 071°08'7 6.5
2015-Aug-23 16:32N 41°25' W 071°17'4 0.6
2015-Aug-23 10:19N 41°29' W 071°20'0 0.0
2015-Aug-23 03:16N 41°29' W 071°20'0 0.0
2015-Aug-23 02:19N 41°29' W 071°20'0 0.0
2015-Aug-23 01:31N 41°29' W 071°20'0 0.0
2015-Aug-22 23:31N 41°29' W 071°20'0 0.0
2015-Aug-22 20:31N 41°29' W 071°20'0 0.0
2015-Aug-22 19:31N 41°29' W 071°20'0 0.0
2015-Aug-22 18:31N 41°29' W 071°20'  
2015-Aug-17 19:25N 41°35' W 071°17'0 0.0
2015-Aug-17 17:21N 41°35' W 071°17'3 1.7
2015-Aug-17 15:22N 41°33' W 071°20'3 1.7
2015-Aug-17 13:17N 41°35' W 071°17'  
Track history (hours):
 
Tides and Currents Weather Stations Pressure Air Temp Water Temp Dewpoint Dewpoint Depression Visibility Wind Speed Wind Dir Waves Ship Positions

Neki

Owner: Noble Marine, LLC, Lighthouse Point, FL. More information available from US FCC via Universal Licensing System and Coast Guard Vessel Documentation Center.

Last reported at 2015-Aug-26 20:21 UTC. Time now 2015-Aug-31 19:54 UTC.
Position N 41°31' W 070°42'.

Length 20 m.

Type: Sailing vessel. MMSI: 367466230.

Date/timePositionNaut miles runAvg speedWind from/ knotsBaromVisibWave heightAir tempDewpointWater temp
2015-Aug-26 20:21N 41°31' W 070°42'3 3.5
2015-Aug-26 19:33N 41°30' W 070°38'4 4.1
2015-Aug-26 18:34N 41°30' W 070°33'7 6.8
2015-Aug-26 17:33N 41°23' W 070°30'0 0.0
2015-Aug-26 16:33N 41°23' W 070°30'0 0.0
2015-Aug-25 18:32N 41°23' W 070°30'0 0.0
2015-Aug-25 17:29N 41°23' W 070°30'0 0.0
2015-Aug-25 16:20N 41°23' W 070°30'0 0.0
2015-Aug-25 15:17N 41°23' W 070°30'0 0.0
2015-Aug-25 12:32N 41°23' W 070°30'0 0.0
2015-Aug-25 11:29N 41°23' W 070°30'0 0.0
2015-Aug-25 10:20N 41°23' W 070°30'23 0.6
2015-Aug-23 18:17N 41°23' W 071°01'5 7.5
2015-Aug-23 17:33N 41°24' W 071°08'7 6.5
2015-Aug-23 16:32N 41°25' W 071°17'4 0.6
2015-Aug-23 10:19N 41°29' W 071°20'0 0.0
2015-Aug-23 03:16N 41°29' W 071°20'0 0.0
2015-Aug-23 02:19N 41°29' W 071°20'0 0.0
2015-Aug-23 01:31N 41°29' W 071°20'0 0.0
2015-Aug-22 23:31N 41°29' W 071°20'0 0.0
2015-Aug-22 20:31N 41°29' W 071°20'0 0.0
2015-Aug-22 19:31N 41°29' W 071°20'0 0.0
2015-Aug-22 18:31N 41°29' W 071°20'  
2015-Aug-17 19:25N 41°35' W 071°17'0 0.0
2015-Aug-17 17:21N 41°35' W 071°17'3 1.7
2015-Aug-17 15:22N 41°33' W 071°20'3 1.7
2015-Aug-17 13:17N 41°35' W 071°17'  

Dump ship's entire track history